sensor_id;sensor_type;location;lat;lon;timestamp;temperature;humidity
68011;DHT22;54794;48.348;7.878;2022-09-09T00:02:22;20.60;54.90
68011;DHT22;54794;48.348;7.878;2022-09-09T00:05:04;20.60;54.80
68011;DHT22;54794;48.348;7.878;2022-09-09T00:07:50;20.60;54.80
68011;DHT22;54794;48.348;7.878;2022-09-09T00:21:13;20.50;54.70
68011;DHT22;54794;48.348;7.878;2022-09-09T00:23:51;20.60;54.80
68011;DHT22;54794;48.348;7.878;2022-09-09T00:31:29;20.60;54.80
68011;DHT22;54794;48.348;7.878;2022-09-09T00:33:58;20.60;54.80
68011;DHT22;54794;48.348;7.878;2022-09-09T00:36:35;20.70;54.80
68011;DHT22;54794;48.348;7.878;2022-09-09T00:39:03;20.70;55.00
68011;DHT22;54794;48.348;7.878;2022-09-09T00:44:38;20.70;54.80
68011;DHT22;54794;48.348;7.878;2022-09-09T00:47:30;20.70;54.80
68011;DHT22;54794;48.348;7.878;2022-09-09T00:58:38;20.80;54.70
68011;DHT22;54794;48.348;7.878;2022-09-09T01:01:07;20.90;54.80
68011;DHT22;54794;48.348;7.878;2022-09-09T01:03:40;20.90;54.90
68011;DHT22;54794;48.348;7.878;2022-09-09T01:27:58;21.00;54.70
68011;DHT22;54794;48.348;7.878;2022-09-09T01:30:28;21.00;54.70
68011;DHT22;54794;48.348;7.878;2022-09-09T01:32:56;21.00;54.70
68011;DHT22;54794;48.348;7.878;2022-09-09T01:35:32;21.00;54.70
68011;DHT22;54794;48.348;7.878;2022-09-09T01:38:21;21.00;54.80
68011;DHT22;54794;48.348;7.878;2022-09-09T01:40:49;21.10;54.90
68011;DHT22;54794;48.348;7.878;2022-09-09T01:43:19;21.00;54.70
68011;DHT22;54794;48.348;7.878;2022-09-09T01:45:47;21.10;54.70
68011;DHT22;54794;48.348;7.878;2022-09-09T01:48:17;21.10;54.70
68011;DHT22;54794;48.348;7.878;2022-09-09T01:50:45;21.00;54.80
68011;DHT22;54794;48.348;7.878;2022-09-09T01:53:12;21.00;54.70
68011;DHT22;54794;48.348;7.878;2022-09-09T01:55:40;21.00;54.70
68011;DHT22;54794;48.348;7.878;2022-09-09T02:01:23;20.90;54.80
68011;DHT22;54794;48.348;7.878;2022-09-09T02:03:51;20.90;54.50
68011;DHT22;54794;48.348;7.878;2022-09-09T02:09:07;20.80;54.50
68011;DHT22;54794;48.348;7.878;2022-09-09T02:11:38;20.80;54.50
68011;DHT22;54794;48.348;7.878;2022-09-09T02:14:05;20.80;54.50
68011;DHT22;54794;48.348;7.878;2022-09-09T02:16:48;20.70;54.50
68011;DHT22;54794;48.348;7.878;2022-09-09T02:19:27;20.70;54.60
68011;DHT22;54794;48.348;7.878;2022-09-09T02:21:59;20.70;54.50
68011;DHT22;54794;48.348;7.878;2022-09-09T02:24:27;20.60;54.60
68011;DHT22;54794;48.348;7.878;2022-09-09T02:26:57;20.60;54.70
68011;DHT22;54794;48.348;7.878;2022-09-09T02:29:48;20.60;54.80
68011;DHT22;54794;48.348;7.878;2022-09-09T02:32:17;20.60;54.80
68011;DHT22;54794;48.348;7.878;2022-09-09T02:34:54;20.50;54.90
68011;DHT22;54794;48.348;7.878;2022-09-09T02:37:33;20.50;55.00
68011;DHT22;54794;48.348;7.878;2022-09-09T02:40:04;20.50;54.90
68011;DHT22;54794;48.348;7.878;2022-09-09T02:42:32;20.50;55.00
68011;DHT22;54794;48.348;7.878;2022-09-09T02:45:05;20.40;54.90
68011;DHT22;54794;48.348;7.878;2022-09-09T02:47:34;20.40;55.00
68011;DHT22;54794;48.348;7.878;2022-09-09T02:55:14;20.40;55.20
68011;DHT22;54794;48.348;7.878;2022-09-09T02:57:58;20.40;55.30
68011;DHT22;54794;48.348;7.878;2022-09-09T03:00:26;20.30;55.70
68011;DHT22;54794;48.348;7.878;2022-09-09T03:02:54;20.30;55.20
68011;DHT22;54794;48.348;7.878;2022-09-09T03:05:21;20.30;55.20
68011;DHT22;54794;48.348;7.878;2022-09-09T03:07:48;20.30;55.40
68011;DHT22;54794;48.348;7.878;2022-09-09T03:10:16;20.30;55.40
68011;DHT22;54794;48.348;7.878;2022-09-09T03:12:43;20.30;55.50
68011;DHT22;54794;48.348;7.878;2022-09-09T03:15:10;20.30;55.30
68011;DHT22;54794;48.348;7.878;2022-09-09T03:17:37;20.30;55.40
68011;DHT22;54794;48.348;7.878;2022-09-09T03:20:04;20.30;55.40
68011;DHT22;54794;48.348;7.878;2022-09-09T03:22:31;20.30;55.40
68011;DHT22;54794;48.348;7.878;2022-09-09T03:24:58;20.30;55.40
68011;DHT22;54794;48.348;7.878;2022-09-09T03:27:24;20.30;55.40
68011;DHT22;54794;48.348;7.878;2022-09-09T03:29:51;20.30;55.50
68011;DHT22;54794;48.348;7.878;2022-09-09T03:32:18;20.30;55.40
68011;DHT22;54794;48.348;7.878;2022-09-09T03:34:45;20.30;55.40
68011;DHT22;54794;48.348;7.878;2022-09-09T03:37:13;20.30;55.70
68011;DHT22;54794;48.348;7.878;2022-09-09T03:39:40;20.30;55.40
68011;DHT22;54794;48.348;7.878;2022-09-09T03:42:07;20.20;55.30
68011;DHT22;54794;48.348;7.878;2022-09-09T03:44:34;20.20;55.40
68011;DHT22;54794;48.348;7.878;2022-09-09T03:47:00;20.20;55.30
68011;DHT22;54794;48.348;7.878;2022-09-09T03:49:27;20.20;55.40
68011;DHT22;54794;48.348;7.878;2022-09-09T03:51:56;20.20;55.40
68011;DHT22;54794;48.348;7.878;2022-09-09T03:54:24;20.10;55.40
68011;DHT22;54794;48.348;7.878;2022-09-09T03:56:51;20.10;55.50
68011;DHT22;54794;48.348;7.878;2022-09-09T03:59:18;20.10;55.50
68011;DHT22;54794;48.348;7.878;2022-09-09T04:01:45;20.10;55.50
68011;DHT22;54794;48.348;7.878;2022-09-09T04:04:13;20.00;55.60
68011;DHT22;54794;48.348;7.878;2022-09-09T04:06:40;20.00;55.60
68011;DHT22;54794;48.348;7.878;2022-09-09T04:09:07;20.00;55.60
68011;DHT22;54794;48.348;7.878;2022-09-09T04:11:33;20.00;55.70
68011;DHT22;54794;48.348;7.878;2022-09-09T04:14:00;19.90;55.70
68011;DHT22;54794;48.348;7.878;2022-09-09T04:16:27;19.90;55.70
68011;DHT22;54794;48.348;7.878;2022-09-09T04:18:54;19.90;55.70
68011;DHT22;54794;48.348;7.878;2022-09-09T04:21:22;19.80;55.70
68011;DHT22;54794;48.348;7.878;2022-09-09T04:23:49;19.80;55.70
68011;DHT22;54794;48.348;7.878;2022-09-09T04:26:16;19.70;55.60
68011;DHT22;54794;48.348;7.878;2022-09-09T04:28:43;19.70;55.70
68011;DHT22;54794;48.348;7.878;2022-09-09T04:31:17;19.70;55.80
68011;DHT22;54794;48.348;7.878;2022-09-09T04:33:46;19.70;55.80
68011;DHT22;54794;48.348;7.878;2022-09-09T04:36:13;19.60;55.70
68011;DHT22;54794;48.348;7.878;2022-09-09T04:38:40;19.60;55.80
68011;DHT22;54794;48.348;7.878;2022-09-09T04:41:07;19.60;55.90
68011;DHT22;54794;48.348;7.878;2022-09-09T04:43:34;19.60;55.90
68011;DHT22;54794;48.348;7.878;2022-09-09T04:46:00;19.60;56.00
68011;DHT22;54794;48.348;7.878;2022-09-09T04:48:27;19.60;56.00
68011;DHT22;54794;48.348;7.878;2022-09-09T04:53:22;19.60;56.20
68011;DHT22;54794;48.348;7.878;2022-09-09T04:55:49;19.50;56.20
68011;DHT22;54794;48.348;7.878;2022-09-09T04:58:16;19.50;56.20
68011;DHT22;54794;48.348;7.878;2022-09-09T05:00:43;19.50;56.20
68011;DHT22;54794;48.348;7.878;2022-09-09T05:03:10;19.50;56.20
68011;DHT22;54794;48.348;7.878;2022-09-09T05:05:38;19.50;56.30
68011;DHT22;54794;48.348;7.878;2022-09-09T05:08:06;19.40;56.30
68011;DHT22;54794;48.348;7.878;2022-09-09T05:10:36;19.50;56.40
68011;DHT22;54794;48.348;7.878;2022-09-09T05:13:04;19.40;56.50
68011;DHT22;54794;48.348;7.878;2022-09-09T05:15:32;19.50;56.80
68011;DHT22;54794;48.348;7.878;2022-09-09T05:18:00;19.50;56.70
68011;DHT22;54794;48.348;7.878;2022-09-09T05:20:27;19.50;56.70
68011;DHT22;54794;48.348;7.878;2022-09-09T05:22:55;19.50;56.80
68011;DHT22;54794;48.348;7.878;2022-09-09T05:25:23;19.50;56.80
68011;DHT22;54794;48.348;7.878;2022-09-09T05:27:52;19.50;56.90
68011;DHT22;54794;48.348;7.878;2022-09-09T05:30:20;19.60;56.90
68011;DHT22;54794;48.348;7.878;2022-09-09T05:32:48;19.60;57.10
68011;DHT22;54794;48.348;7.878;2022-09-09T05:35:15;19.60;56.90
68011;DHT22;54794;48.348;7.878;2022-09-09T05:37:42;19.60;56.90
68011;DHT22;54794;48.348;7.878;2022-09-09T05:40:09;19.60;56.90
68011;DHT22;54794;48.348;7.878;2022-09-09T05:42:37;19.70;57.00
68011;DHT22;54794;48.348;7.878;2022-09-09T05:45:05;19.70;57.10
68011;DHT22;54794;48.348;7.878;2022-09-09T05:47:34;19.70;57.10
68011;DHT22;54794;48.348;7.878;2022-09-09T05:50:01;19.70;57.20
68011;DHT22;54794;48.348;7.878;2022-09-09T05:52:28;19.80;57.10
68011;DHT22;54794;48.348;7.878;2022-09-09T05:54:55;19.80;57.00
68011;DHT22;54794;48.348;7.878;2022-09-09T05:57:23;19.80;57.10
68011;DHT22;54794;48.348;7.878;2022-09-09T05:59:50;19.90;57.20
68011;DHT22;54794;48.348;7.878;2022-09-09T06:02:16;19.90;57.30
68011;DHT22;54794;48.348;7.878;2022-09-09T06:04:43;19.90;57.20
68011;DHT22;54794;48.348;7.878;2022-09-09T06:07:10;19.90;57.30
68011;DHT22;54794;48.348;7.878;2022-09-09T06:09:37;20.00;57.30
68011;DHT22;54794;48.348;7.878;2022-09-09T06:12:04;20.00;57.30
68011;DHT22;54794;48.348;7.878;2022-09-09T06:14:31;20.00;57.40
68011;DHT22;54794;48.348;7.878;2022-09-09T06:16:57;20.10;58.00
68011;DHT22;54794;48.348;7.878;2022-09-09T06:19:24;20.10;57.40
68011;DHT22;54794;48.348;7.878;2022-09-09T06:21:52;20.20;57.50
68011;DHT22;54794;48.348;7.878;2022-09-09T06:24:19;20.20;57.60
68011;DHT22;54794;48.348;7.878;2022-09-09T06:26:46;20.20;57.40
68011;DHT22;54794;48.348;7.878;2022-09-09T06:29:13;20.30;57.50
68011;DHT22;54794;48.348;7.878;2022-09-09T06:31:39;20.40;57.50
68011;DHT22;54794;48.348;7.878;2022-09-09T06:34:08;20.40;57.60
68011;DHT22;54794;48.348;7.878;2022-09-09T06:36:36;20.50;57.60
68011;DHT22;54794;48.348;7.878;2022-09-09T06:39:05;20.50;57.70
68011;DHT22;54794;48.348;7.878;2022-09-09T06:41:39;20.50;57.60
68011;DHT22;54794;48.348;7.878;2022-09-09T06:44:07;20.60;57.60
68011;DHT22;54794;48.348;7.878;2022-09-09T06:46:34;20.60;57.50
68011;DHT22;54794;48.348;7.878;2022-09-09T06:49:02;20.70;57.60
68011;DHT22;54794;48.348;7.878;2022-09-09T06:51:29;20.80;57.60
68011;DHT22;54794;48.348;7.878;2022-09-09T06:53:58;20.80;57.70
68011;DHT22;54794;48.348;7.878;2022-09-09T06:56:29;20.90;57.50
68011;DHT22;54794;48.348;7.878;2022-09-09T06:58:58;20.90;57.60
68011;DHT22;54794;48.348;7.878;2022-09-09T07:01:28;21.00;57.60
68011;DHT22;54794;48.348;7.878;2022-09-09T07:03:57;21.00;57.40
68011;DHT22;54794;48.348;7.878;2022-09-09T07:06:28;21.10;57.60
68011;DHT22;54794;48.348;7.878;2022-09-09T07:09:01;21.10;57.40
68011;DHT22;54794;48.348;7.878;2022-09-09T07:11:31;21.20;57.60
68011;DHT22;54794;48.348;7.878;2022-09-09T07:14:00;21.20;57.60
68011;DHT22;54794;48.348;7.878;2022-09-09T07:16:27;21.20;57.50
68011;DHT22;54794;48.348;7.878;2022-09-09T07:18:55;21.30;57.60
68011;DHT22;54794;48.348;7.878;2022-09-09T07:21:27;21.40;57.60
68011;DHT22;54794;48.348;7.878;2022-09-09T07:23:55;21.40;57.60
68011;DHT22;54794;48.348;7.878;2022-09-09T07:26:23;21.50;57.70
68011;DHT22;54794;48.348;7.878;2022-09-09T07:28:51;21.50;57.60
68011;DHT22;54794;48.348;7.878;2022-09-09T07:31:26;21.60;57.80
68011;DHT22;54794;48.348;7.878;2022-09-09T07:33:57;21.60;57.70
68011;DHT22;54794;48.348;7.878;2022-09-09T07:36:27;21.70;57.80
68011;DHT22;54794;48.348;7.878;2022-09-09T07:39:00;21.80;57.80
68011;DHT22;54794;48.348;7.878;2022-09-09T07:41:31;21.90;57.90
68011;DHT22;54794;48.348;7.878;2022-09-09T07:43:59;22.00;58.00
68011;DHT22;54794;48.348;7.878;2022-09-09T07:46:29;22.10;58.00
68011;DHT22;54794;48.348;7.878;2022-09-09T07:48:56;22.20;58.00
68011;DHT22;54794;48.348;7.878;2022-09-09T07:51:25;22.30;58.00
68011;DHT22;54794;48.348;7.878;2022-09-09T07:53:55;22.30;57.90
68011;DHT22;54794;48.348;7.878;2022-09-09T07:56:28;22.50;58.00
68011;DHT22;54794;48.348;7.878;2022-09-09T07:58:56;22.60;58.10
68011;DHT22;54794;48.348;7.878;2022-09-09T08:01:26;22.60;57.90
68011;DHT22;54794;48.348;7.878;2022-09-09T08:04:01;22.80;58.00
68011;DHT22;54794;48.348;7.878;2022-09-09T08:06:37;22.80;57.80
68011;DHT22;54794;48.348;7.878;2022-09-09T08:09:06;22.90;57.80
68011;DHT22;54794;48.348;7.878;2022-09-09T08:11:34;23.10;58.00
68011;DHT22;54794;48.348;7.878;2022-09-09T08:14:05;23.20;57.80
68011;DHT22;54794;48.348;7.878;2022-09-09T08:16:35;23.20;57.80
68011;DHT22;54794;48.348;7.878;2022-09-09T08:19:07;23.40;57.80
68011;DHT22;54794;48.348;7.878;2022-09-09T08:21:41;23.50;57.90
68011;DHT22;54794;48.348;7.878;2022-09-09T08:24:09;23.60;57.80
68011;DHT22;54794;48.348;7.878;2022-09-09T08:26:37;23.70;57.60
68011;DHT22;54794;48.348;7.878;2022-09-09T08:29:11;23.80;57.50
68011;DHT22;54794;48.348;7.878;2022-09-09T08:31:40;23.90;57.20
68011;DHT22;54794;48.348;7.878;2022-09-09T08:34:09;24.00;57.20
68011;DHT22;54794;48.348;7.878;2022-09-09T08:36:37;24.10;57.20
68011;DHT22;54794;48.348;7.878;2022-09-09T08:39:07;24.20;56.90
68011;DHT22;54794;48.348;7.878;2022-09-09T08:49:38;24.60;57.40
68011;DHT22;54794;48.348;7.878;2022-09-09T08:52:29;24.70;57.30
68011;DHT22;54794;48.348;7.878;2022-09-09T08:55:48;24.90;57.30
68011;DHT22;54794;48.348;7.878;2022-09-09T08:58:06;25.10;56.60
68011;DHT22;54794;48.348;7.878;2022-09-09T09:00:50;25.20;56.40
68011;DHT22;54794;48.348;7.878;2022-09-09T09:03:28;25.30;55.40
68011;DHT22;54794;48.348;7.878;2022-09-09T09:06:07;25.30;55.60
68011;DHT22;54794;48.348;7.878;2022-09-09T09:09:05;25.40;55.10
68011;DHT22;54794;48.348;7.878;2022-09-09T09:11:43;25.40;55.00
68011;DHT22;54794;48.348;7.878;2022-09-09T09:14:23;25.40;54.80
68011;DHT22;54794;48.348;7.878;2022-09-09T09:19:39;25.30;54.10
68011;DHT22;54794;48.348;7.878;2022-09-09T09:22:16;25.20;54.20
68011;DHT22;54794;48.348;7.878;2022-09-09T09:25:11;25.10;54.10
68011;DHT22;54794;48.348;7.878;2022-09-09T09:30:35;24.80;53.40
68011;DHT22;54794;48.348;7.878;2022-09-09T09:33:13;24.60;52.80
68011;DHT22;54794;48.348;7.878;2022-09-09T09:35:44;24.30;52.30
68011;DHT22;54794;48.348;7.878;2022-09-09T09:38:14;24.00;52.50
68011;DHT22;54794;48.348;7.878;2022-09-09T09:41:06;23.70;53.10
68011;DHT22;54794;48.348;7.878;2022-09-09T09:43:34;23.30;53.00
68011;DHT22;54794;48.348;7.878;2022-09-09T09:46:03;23.10;53.30
68011;DHT22;54794;48.348;7.878;2022-09-09T09:48:43;22.80;53.70
68011;DHT22;54794;48.348;7.878;2022-09-09T09:51:13;22.70;54.30
68011;DHT22;54794;48.348;7.878;2022-09-09T09:53:42;22.50;54.60
68011;DHT22;54794;48.348;7.878;2022-09-09T09:56:10;22.40;55.30
68011;DHT22;54794;48.348;7.878;2022-09-09T10:01:23;22.20;55.60
68011;DHT22;54794;48.348;7.878;2022-09-09T10:03:59;22.10;55.80
68011;DHT22;54794;48.348;7.878;2022-09-09T10:06:46;22.10;56.20
68011;DHT22;54794;48.348;7.878;2022-09-09T10:09:24;22.00;56.30
68011;DHT22;54794;48.348;7.878;2022-09-09T10:12:08;22.00;56.50
68011;DHT22;54794;48.348;7.878;2022-09-09T10:32:48;22.40;58.20
68011;DHT22;54794;48.348;7.878;2022-09-09T10:41:11;22.90;58.10
68011;DHT22;54794;48.348;7.878;2022-09-09T10:46:48;23.10;57.80
68011;DHT22;54794;48.348;7.878;2022-09-09T10:52:18;23.30;58.00
68011;DHT22;54794;48.348;7.878;2022-09-09T10:57:34;23.50;58.30
68011;DHT22;54794;48.348;7.878;2022-09-09T11:00:30;23.50;58.00
68011;DHT22;54794;48.348;7.878;2022-09-09T11:03:05;23.70;58.40
68011;DHT22;54794;48.348;7.878;2022-09-09T11:05:45;23.90;58.40
68011;DHT22;54794;48.348;7.878;2022-09-09T11:08:20;24.10;58.20
68011;DHT22;54794;48.348;7.878;2022-09-09T11:16:13;24.50;58.00
68011;DHT22;54794;48.348;7.878;2022-09-09T11:18:47;24.60;57.70
68011;DHT22;54794;48.348;7.878;2022-09-09T11:21:25;24.80;57.80
68011;DHT22;54794;48.348;7.878;2022-09-09T11:23:57;24.80;57.70
68011;DHT22;54794;48.348;7.878;2022-09-09T11:26:32;24.90;57.40
68011;DHT22;54794;48.348;7.878;2022-09-09T11:34:42;25.00;56.90
68011;DHT22;54794;48.348;7.878;2022-09-09T11:42:46;25.10;57.00
68011;DHT22;54794;48.348;7.878;2022-09-09T11:45:20;25.10;57.00
68011;DHT22;54794;48.348;7.878;2022-09-09T11:47:56;25.10;57.00
68011;DHT22;54794;48.348;7.878;2022-09-09T11:52:50;25.10;56.70
68011;DHT22;54794;48.348;7.878;2022-09-09T11:55:27;25.20;56.80
68011;DHT22;54794;48.348;7.878;2022-09-09T11:57:57;25.20;56.80
68011;DHT22;54794;48.348;7.878;2022-09-09T12:00:33;25.20;56.60
68011;DHT22;54794;48.348;7.878;2022-09-09T12:03:01;25.20;56.40
68011;DHT22;54794;48.348;7.878;2022-09-09T12:05:42;25.20;56.20
68011;DHT22;54794;48.348;7.878;2022-09-09T12:08:16;25.20;56.30
68011;DHT22;54794;48.348;7.878;2022-09-09T12:10:58;25.20;56.10
68011;DHT22;54794;48.348;7.878;2022-09-09T12:13:29;25.20;56.10
68011;DHT22;54794;48.348;7.878;2022-09-09T12:15:58;25.20;56.30
68011;DHT22;54794;48.348;7.878;2022-09-09T12:23:55;25.20;56.30
68011;DHT22;54794;48.348;7.878;2022-09-09T12:26:37;25.20;55.60
68011;DHT22;54794;48.348;7.878;2022-09-09T12:29:36;25.20;55.70
68011;DHT22;54794;48.348;7.878;2022-09-09T12:32:28;25.30;55.70
68011;DHT22;54794;48.348;7.878;2022-09-09T12:35:42;25.30;55.30
68011;DHT22;54794;48.348;7.878;2022-09-09T12:37:50;25.30;54.60
68011;DHT22;54794;48.348;7.878;2022-09-09T12:40:27;25.40;54.70
68011;DHT22;54794;48.348;7.878;2022-09-09T12:42:55;25.40;55.10
68011;DHT22;54794;48.348;7.878;2022-09-09T12:45:23;25.50;55.20
68011;DHT22;54794;48.348;7.878;2022-09-09T12:50:37;25.70;54.70
68011;DHT22;54794;48.348;7.878;2022-09-09T12:53:12;25.80;52.30
68011;DHT22;54794;48.348;7.878;2022-09-09T12:55:51;25.90;49.40
68011;DHT22;54794;48.348;7.878;2022-09-09T12:58:38;26.00;52.50
68011;DHT22;54794;48.348;7.878;2022-09-09T13:01:17;26.20;53.30
68011;DHT22;54794;48.348;7.878;2022-09-09T13:03:47;26.30;53.30
68011;DHT22;54794;48.348;7.878;2022-09-09T13:06:27;26.40;54.50
68011;DHT22;54794;48.348;7.878;2022-09-09T13:08:57;26.60;54.40
68011;DHT22;54794;48.348;7.878;2022-09-09T13:11:39;26.80;54.60
68011;DHT22;54794;48.348;7.878;2022-09-09T13:14:18;27.00;54.10
68011;DHT22;54794;48.348;7.878;2022-09-09T13:16:59;27.10;53.20
68011;DHT22;54794;48.348;7.878;2022-09-09T13:19:28;27.20;53.20
68011;DHT22;54794;48.348;7.878;2022-09-09T13:21:58;27.20;52.60
68011;DHT22;54794;48.348;7.878;2022-09-09T13:24:32;27.20;52.70
68011;DHT22;54794;48.348;7.878;2022-09-09T13:27:01;27.20;50.20
68011;DHT22;54794;48.348;7.878;2022-09-09T13:29:51;27.10;50.50
68011;DHT22;54794;48.348;7.878;2022-09-09T13:32:22;27.00;50.30
68011;DHT22;54794;48.348;7.878;2022-09-09T13:34:51;26.90;51.50
68011;DHT22;54794;48.348;7.878;2022-09-09T13:40:03;26.80;51.70
68011;DHT22;54794;48.348;7.878;2022-09-09T13:42:33;26.80;48.70
68011;DHT22;54794;48.348;7.878;2022-09-09T13:45:04;26.90;51.60
68011;DHT22;54794;48.348;7.878;2022-09-09T13:47:32;26.90;51.70
68011;DHT22;54794;48.348;7.878;2022-09-09T13:52:57;26.90;51.20
68011;DHT22;54794;48.348;7.878;2022-09-09T13:55:25;26.90;51.00
68011;DHT22;54794;48.348;7.878;2022-09-09T13:57:54;26.80;51.00
68011;DHT22;54794;48.348;7.878;2022-09-09T14:00:22;26.70;50.40
68011;DHT22;54794;48.348;7.878;2022-09-09T14:02:50;26.80;51.30
68011;DHT22;54794;48.348;7.878;2022-09-09T14:05:18;26.80;51.80
68011;DHT22;54794;48.348;7.878;2022-09-09T14:07:45;26.90;50.60
68011;DHT22;54794;48.348;7.878;2022-09-09T14:10:17;27.00;51.20
68011;DHT22;54794;48.348;7.878;2022-09-09T14:12:45;27.10;47.90
68011;DHT22;54794;48.348;7.878;2022-09-09T14:15:13;27.20;50.20
68011;DHT22;54794;48.348;7.878;2022-09-09T14:17:41;27.30;49.40
68011;DHT22;54794;48.348;7.878;2022-09-09T14:20:08;27.40;49.20
68011;DHT22;54794;48.348;7.878;2022-09-09T14:22:38;27.40;50.00
68011;DHT22;54794;48.348;7.878;2022-09-09T14:25:05;27.40;49.10
68011;DHT22;54794;48.348;7.878;2022-09-09T14:27:33;27.40;48.10
68011;DHT22;54794;48.348;7.878;2022-09-09T14:30:00;27.30;49.20
68011;DHT22;54794;48.348;7.878;2022-09-09T14:32:27;27.30;48.10
68011;DHT22;54794;48.348;7.878;2022-09-09T14:34:54;27.20;49.30
68011;DHT22;54794;48.348;7.878;2022-09-09T14:37:20;27.10;48.50
68011;DHT22;54794;48.348;7.878;2022-09-09T14:39:47;26.90;48.30
68011;DHT22;54794;48.348;7.878;2022-09-09T14:42:17;26.80;48.30
68011;DHT22;54794;48.348;7.878;2022-09-09T14:44:44;26.70;48.30
68011;DHT22;54794;48.348;7.878;2022-09-09T14:47:10;26.60;47.90
68011;DHT22;54794;48.348;7.878;2022-09-09T14:49:37;26.50;46.20
68011;DHT22;54794;48.348;7.878;2022-09-09T14:52:09;26.40;47.10
68011;DHT22;54794;48.348;7.878;2022-09-09T14:54:36;26.30;47.60
68011;DHT22;54794;48.348;7.878;2022-09-09T14:57:02;26.20;47.90
68011;DHT22;54794;48.348;7.878;2022-09-09T14:59:29;26.10;47.70
68011;DHT22;54794;48.348;7.878;2022-09-09T15:01:56;26.00;47.40
68011;DHT22;54794;48.348;7.878;2022-09-09T15:04:23;25.90;47.70
68011;DHT22;54794;48.348;7.878;2022-09-09T15:06:50;25.80;47.60
68011;DHT22;54794;48.348;7.878;2022-09-09T15:09:19;25.70;46.30
68011;DHT22;54794;48.348;7.878;2022-09-09T15:11:46;25.60;47.60
68011;DHT22;54794;48.348;7.878;2022-09-09T15:14:12;25.60;48.10
68011;DHT22;54794;48.348;7.878;2022-09-09T15:16:39;25.50;45.20
68011;DHT22;54794;48.348;7.878;2022-09-09T15:19:07;25.50;47.80
68011;DHT22;54794;48.348;7.878;2022-09-09T15:21:35;25.40;47.30
68011;DHT22;54794;48.348;7.878;2022-09-09T15:24:02;25.40;48.00
68011;DHT22;54794;48.348;7.878;2022-09-09T15:26:30;25.40;48.30
68011;DHT22;54794;48.348;7.878;2022-09-09T15:28:57;25.40;48.70
68011;DHT22;54794;48.348;7.878;2022-09-09T15:31:26;25.30;47.90
68011;DHT22;54794;48.348;7.878;2022-09-09T15:33:55;25.30;47.80
68011;DHT22;54794;48.348;7.878;2022-09-09T15:39:00;25.30;48.30
68011;DHT22;54794;48.348;7.878;2022-09-09T15:41:29;25.20;48.30
68011;DHT22;54794;48.348;7.878;2022-09-09T15:43:57;25.20;47.80
68011;DHT22;54794;48.348;7.878;2022-09-09T15:47:07;25.20;48.00
68011;DHT22;54794;48.348;7.878;2022-09-09T15:49:20;25.10;47.90
68011;DHT22;54794;48.348;7.878;2022-09-09T15:51:53;25.10;48.00
68011;DHT22;54794;48.348;7.878;2022-09-09T15:54:21;25.00;48.30
68011;DHT22;54794;48.348;7.878;2022-09-09T15:57:00;25.00;48.20
68011;DHT22;54794;48.348;7.878;2022-09-09T15:59:29;24.90;47.20
68011;DHT22;54794;48.348;7.878;2022-09-09T16:01:57;24.90;48.00
68011;DHT22;54794;48.348;7.878;2022-09-09T16:04:27;24.80;48.00
68011;DHT22;54794;48.348;7.878;2022-09-09T16:06:56;24.80;48.10
68011;DHT22;54794;48.348;7.878;2022-09-09T16:09:27;24.70;48.20
68011;DHT22;54794;48.348;7.878;2022-09-09T16:11:57;24.70;47.70
68011;DHT22;54794;48.348;7.878;2022-09-09T16:14:27;24.60;46.90
68011;DHT22;54794;48.348;7.878;2022-09-09T16:16:54;24.50;48.10
68011;DHT22;54794;48.348;7.878;2022-09-09T16:19:22;24.50;47.30
68011;DHT22;54794;48.348;7.878;2022-09-09T16:21:49;24.50;47.70
68011;DHT22;54794;48.348;7.878;2022-09-09T16:24:17;24.40;48.00
68011;DHT22;54794;48.348;7.878;2022-09-09T16:26:48;24.30;48.00
68011;DHT22;54794;48.348;7.878;2022-09-09T16:29:17;24.30;48.40
68011;DHT22;54794;48.348;7.878;2022-09-09T16:31:45;24.30;48.20
68011;DHT22;54794;48.348;7.878;2022-09-09T16:34:13;24.20;48.50
68011;DHT22;54794;48.348;7.878;2022-09-09T16:36:41;24.20;48.30
68011;DHT22;54794;48.348;7.878;2022-09-09T16:39:10;24.20;48.60
68011;DHT22;54794;48.348;7.878;2022-09-09T16:41:38;24.20;48.60
68011;DHT22;54794;48.348;7.878;2022-09-09T16:44:07;24.10;48.70
68011;DHT22;54794;48.348;7.878;2022-09-09T16:46:37;24.10;48.70
68011;DHT22;54794;48.348;7.878;2022-09-09T16:49:06;24.10;48.70
68011;DHT22;54794;48.348;7.878;2022-09-09T16:51:37;24.10;48.80
68011;DHT22;54794;48.348;7.878;2022-09-09T16:54:07;24.00;48.50
68011;DHT22;54794;48.348;7.878;2022-09-09T16:56:36;24.00;48.40
68011;DHT22;54794;48.348;7.878;2022-09-09T16:59:06;23.90;48.20
68011;DHT22;54794;48.348;7.878;2022-09-09T17:01:35;23.90;48.50
68011;DHT22;54794;48.348;7.878;2022-09-09T17:04:05;23.90;48.30
68011;DHT22;54794;48.348;7.878;2022-09-09T17:06:37;23.80;48.50
68011;DHT22;54794;48.348;7.878;2022-09-09T17:09:05;23.80;48.80
68011;DHT22;54794;48.348;7.878;2022-09-09T17:11:33;23.70;48.80
68011;DHT22;54794;48.348;7.878;2022-09-09T17:14:01;23.70;48.80
68011;DHT22;54794;48.348;7.878;2022-09-09T17:16:28;23.70;48.90
68011;DHT22;54794;48.348;7.878;2022-09-09T17:18:57;23.70;48.90
68011;DHT22;54794;48.348;7.878;2022-09-09T17:21:27;23.70;49.00
68011;DHT22;54794;48.348;7.878;2022-09-09T17:23:55;23.60;48.80
68011;DHT22;54794;48.348;7.878;2022-09-09T17:26:23;23.60;48.80
68011;DHT22;54794;48.348;7.878;2022-09-09T17:28:53;23.60;48.90
68011;DHT22;54794;48.348;7.878;2022-09-09T17:31:25;23.60;49.00
68011;DHT22;54794;48.348;7.878;2022-09-09T17:33:54;23.50;48.80
68011;DHT22;54794;48.348;7.878;2022-09-09T17:36:22;23.50;48.90
68011;DHT22;54794;48.348;7.878;2022-09-09T17:38:51;23.40;49.00
68011;DHT22;54794;48.348;7.878;2022-09-09T17:41:40;23.40;48.90
68011;DHT22;54794;48.348;7.878;2022-09-09T17:44:06;23.40;49.00
68011;DHT22;54794;48.348;7.878;2022-09-09T17:46:40;23.40;49.10
68011;DHT22;54794;48.348;7.878;2022-09-09T17:49:15;23.30;49.00
68011;DHT22;54794;48.348;7.878;2022-09-09T17:51:44;23.30;49.00
68011;DHT22;54794;48.348;7.878;2022-09-09T17:54:18;23.20;49.10
68011;DHT22;54794;48.348;7.878;2022-09-09T17:56:46;23.20;49.10
68011;DHT22;54794;48.348;7.878;2022-09-09T17:59:14;23.20;49.10
68011;DHT22;54794;48.348;7.878;2022-09-09T18:01:43;23.10;49.10
68011;DHT22;54794;48.348;7.878;2022-09-09T18:04:13;23.10;49.20
68011;DHT22;54794;48.348;7.878;2022-09-09T18:06:41;23.10;49.20
68011;DHT22;54794;48.348;7.878;2022-09-09T18:09:14;23.00;49.30
68011;DHT22;54794;48.348;7.878;2022-09-09T18:11:43;23.00;49.20
68011;DHT22;54794;48.348;7.878;2022-09-09T18:14:13;23.00;49.20
68011;DHT22;54794;48.348;7.878;2022-09-09T18:16:45;22.90;49.20
68011;DHT22;54794;48.348;7.878;2022-09-09T18:19:15;22.90;49.30
68011;DHT22;54794;48.348;7.878;2022-09-09T18:21:44;22.90;49.30